createdAt,value
2018-08-30T00:01:17.619Z,5.86
2018-08-30T00:07:18.397Z,7.11
2018-08-30T00:11:19.111Z,6.87
2018-08-30T00:17:19.803Z,7.28
2018-08-30T00:21:20.472Z,7.03
2018-08-30T00:27:21.208Z,7.02
2018-08-30T00:33:22.019Z,7.95
2018-08-30T00:37:22.684Z,6.84
2018-08-30T00:43:23.471Z,7.23
2018-08-30T00:47:24.279Z,6.82
2018-08-30T00:49:25.114Z,6.81
2018-08-30T00:53:25.933Z,6.38
2018-08-30T00:59:26.678Z,7.59
2018-08-30T01:03:27.413Z,6.61
2018-08-30T01:09:28.380Z,7.04
2018-08-30T01:13:29.124Z,6.84
2018-08-30T01:15:30.452Z,7.12
2018-08-30T01:19:31.217Z,6.95
2018-08-30T01:25:31.896Z,8.08
2018-08-30T01:29:32.725Z,7.46
2018-08-30T01:35:33.550Z,7.03
2018-08-30T01:39:34.285Z,6.46
2018-08-30T01:41:35.084Z,7.36
2018-08-30T01:51:41.369Z,6.98
2018-08-30T01:51:41.463Z,7.17
2018-08-30T01:55:42.311Z,6.57
2018-08-30T02:01:42.988Z,5.54
2018-08-30T02:05:43.753Z,4.96
2018-08-30T02:07:44.497Z,5.56
2018-08-30T02:11:45.245Z,5.82
2018-08-30T02:17:46.008Z,6.67
2018-08-30T02:21:46.776Z,5.98
2018-08-30T02:27:47.577Z,6.46
2018-08-30T02:31:48.295Z,5.71
2018-08-30T02:33:49.029Z,5.48
2018-08-30T02:37:49.892Z,5.68
2018-08-30T02:43:50.723Z,6.57
2018-08-30T02:47:51.554Z,5.68
2018-08-30T02:53:52.277Z,6.25
2018-08-30T02:57:53.081Z,5.55
2018-08-30T02:59:53.795Z,5.81
2018-08-30T03:03:54.578Z,5.37
2018-08-30T03:09:55.334Z,5.68
2018-08-30T03:13:56.170Z,5.65
2018-08-30T03:19:56.956Z,6.25
2018-08-30T03:23:57.682Z,6.08
2018-08-30T03:25:58.346Z,5.61
2018-08-30T03:29:59.069Z,6.15
2018-08-30T03:35:59.843Z,6.12
2018-08-30T03:40:00.555Z,5.43
2018-08-30T03:46:01.318Z,5.9
2018-08-30T03:50:02.377Z,5.67
2018-08-30T03:52:02.824Z,5.78
2018-08-30T03:56:03.616Z,6.09
2018-08-30T04:02:04.494Z,5.94
2018-08-30T04:06:05.302Z,6.47
2018-08-30T04:12:06.109Z,6.56
2018-08-30T04:16:06.818Z,6.36
2018-08-30T04:18:07.704Z,6.99
2018-08-30T04:22:08.572Z,6.2
2018-08-30T04:28:09.276Z,6.53
2018-08-30T04:32:10.022Z,6.51
2018-08-30T04:38:10.894Z,7.25
2018-08-30T04:49:12.395Z,9.21
2018-08-30T04:53:13.111Z,7.53
2018-08-30T04:59:13.852Z,6.95
2018-08-30T05:03:14.597Z,6.82
2018-08-30T05:05:15.294Z,6.97
2018-08-30T05:09:16.173Z,6.23
2018-08-30T05:15:17.312Z,6.91
2018-08-30T05:19:18.074Z,6.82
2018-08-30T05:25:18.807Z,7.4
2018-08-30T05:29:19.542Z,6.86
2018-08-30T05:31:20.252Z,6.14
2018-08-30T05:35:21.009Z,5.14
2018-08-30T05:41:21.724Z,7.85
2018-08-30T05:45:23.106Z,7.01
2018-08-30T05:51:23.810Z,11.57
2018-08-30T05:55:24.568Z,11.33
2018-08-30T05:57:25.289Z,6.58
2018-08-30T06:01:26.051Z,5.77
2018-08-30T06:48:01.108Z,7.43
2018-08-30T06:48:01.356Z,7.25
2018-08-30T06:48:01.378Z,8.38
2018-08-30T06:48:01.540Z,8.34
2018-08-30T06:48:01.681Z,6.53
2018-08-30T06:48:01.876Z,7.65
2018-08-30T06:48:02.005Z,6.46
2018-08-30T06:48:02.138Z,7.66
2018-08-30T06:48:02.300Z,7.71
2018-08-30T06:54:03.044Z,7.48
2018-08-30T06:58:03.802Z,7.37
2018-08-30T07:00:04.501Z,6.98
2018-08-30T07:04:05.292Z,6.91
2018-08-30T07:10:06.246Z,9.58
2018-08-30T07:14:07.046Z,11.47
2018-08-30T07:20:07.832Z,9.12
2018-08-30T07:24:08.628Z,8.47
2018-08-30T07:26:09.460Z,7.73
2018-08-30T07:30:11.017Z,7.59
2018-08-30T07:36:12.473Z,8.77
2018-08-30T07:40:13.250Z,7.66
2018-08-30T07:46:14.018Z,8.16
2018-08-30T07:50:14.884Z,8.05
2018-08-30T07:52:15.536Z,7.98
2018-08-30T07:56:16.334Z,6.83
2018-08-30T08:02:17.089Z,8.77
2018-08-30T08:06:17.859Z,7.65
2018-08-30T08:12:18.614Z,6.45
2018-08-30T08:16:19.362Z,6.14
2018-08-30T08:18:20.051Z,6.44
2018-08-30T08:22:20.765Z,7.76
2018-08-30T08:28:21.570Z,6.02
2018-08-30T08:32:22.283Z,6.67
2018-08-30T08:38:22.973Z,6.16
2018-08-30T08:42:23.725Z,5.72
2018-08-30T08:44:24.346Z,6.5
2018-08-30T08:48:25.165Z,5.77
2018-08-30T08:54:25.888Z,6.89
2018-08-30T08:58:26.640Z,5.98
2018-08-30T09:04:27.400Z,6.01
2018-08-30T09:08:28.165Z,5.66
2018-08-30T09:10:28.857Z,7.18
2018-08-30T09:14:29.695Z,8.04
2018-08-30T09:20:30.238Z,5.03
2018-08-30T09:24:30.979Z,5.68
2018-08-30T09:30:32.114Z,6.57
2018-08-30T09:34:32.865Z,5.58
2018-08-30T09:36:33.602Z,6.33
2018-08-30T09:40:34.252Z,6.93
2018-08-30T09:46:35.087Z,9.06
2018-08-30T09:50:36.008Z,7.54
2018-08-30T09:56:36.546Z,7.55
2018-08-30T10:02:41.966Z,8.04
2018-08-30T10:06:42.905Z,7.53
2018-08-30T10:12:44.069Z,8.28
2018-08-30T10:16:44.820Z,8.31
2018-08-30T10:22:45.478Z,8.46
2018-08-30T10:26:46.532Z,8.39
2018-08-30T10:28:47.240Z,8.62
2018-08-30T10:32:47.955Z,8.68
2018-08-30T10:38:48.631Z,10.53
2018-08-30T10:42:49.468Z,9.05
2018-08-30T10:48:50.217Z,9.35
2018-08-30T10:54:51.437Z,10.56
2018-08-30T10:58:52.135Z,10.35
2018-08-30T11:04:52.844Z,10.87
2018-08-30T11:08:53.580Z,9.98
2018-08-30T11:14:54.308Z,9.23
2018-08-30T11:20:55.067Z,9.1
2018-08-30T11:24:55.846Z,9.23
2018-08-30T11:30:56.483Z,9.68
2018-08-30T11:34:57.256Z,8.8
2018-08-30T11:40:58.197Z,9.54
2018-08-30T11:46:58.996Z,12.38
2018-08-30T11:50:59.851Z,11.9
2018-08-30T11:57:00.532Z,13.71
2018-08-30T12:01:01.300Z,13.64
2018-08-30T12:07:02.136Z,14.39
2018-08-30T12:13:02.855Z,13.27
2018-08-30T12:17:03.892Z,14.19
2018-08-30T12:23:04.647Z,12.59
2018-08-30T12:27:05.437Z,12.5
2018-08-30T12:29:06.235Z,12.18
2018-08-30T12:33:06.909Z,11.99
2018-08-30T12:39:07.636Z,11.66
2018-08-30T12:43:08.437Z,12.29
2018-08-30T12:49:09.094Z,10.29
2018-08-30T12:53:09.863Z,10.51
2018-08-30T12:55:10.752Z,10.22
2018-08-30T12:59:11.489Z,10.38
2018-08-30T13:05:12.317Z,10.7
2018-08-30T13:09:13.196Z,10.49
2018-08-30T13:15:14.264Z,11.42
2018-08-30T13:19:15.177Z,10.22
2018-08-30T13:21:15.807Z,10.58
2018-08-30T13:25:16.994Z,10.84
2018-08-30T13:31:17.466Z,10.16
2018-08-30T13:35:18.441Z,10.12
2018-08-30T13:41:19.641Z,9.98
2018-08-30T13:45:20.804Z,9.85
2018-08-30T13:47:21.668Z,9.98
2018-08-30T13:51:22.511Z,9.65
2018-08-30T13:57:23.951Z,9.04
2018-08-30T14:01:24.307Z,9.63
2018-08-30T14:07:25.019Z,9.71
2018-08-30T14:11:25.859Z,10.16
2018-08-30T14:13:27.289Z,10.42
2018-08-30T14:17:27.586Z,9.46
2018-08-30T14:23:28.449Z,10.25
2018-08-30T14:27:29.241Z,10.36
2018-08-30T14:33:29.995Z,10.54
2018-08-30T14:37:30.727Z,10.28
2018-08-30T14:39:31.404Z,10.48
2018-08-30T14:43:32.195Z,10.8
2018-08-30T14:49:32.949Z,10.46
2018-08-30T14:53:33.714Z,9.69
2018-08-30T14:59:34.440Z,9.52
2018-08-30T15:05:35.188Z,9.45
2018-08-30T15:09:35.934Z,9.5
2018-08-30T15:15:36.610Z,8.76
2018-08-30T15:19:37.487Z,9.01
2018-08-30T15:25:38.180Z,9.61
2018-08-30T15:31:39.004Z,9.14
2018-08-30T15:35:39.914Z,8.97
2018-08-30T15:41:40.640Z,9.67
2018-08-30T15:45:41.412Z,10.37
2018-08-30T15:51:42.202Z,9.72
2018-08-30T15:57:42.984Z,9.35
2018-08-30T16:01:43.807Z,9.02
2018-08-30T16:07:44.573Z,9.05
2018-08-30T16:11:45.447Z,8.91
2018-08-30T16:13:46.157Z,9.16
2018-08-30T16:17:46.964Z,8.82
2018-08-30T16:23:47.740Z,9.39
2018-08-30T16:27:48.400Z,10.06
2018-08-30T16:33:49.171Z,9.62
2018-08-30T16:37:50.078Z,9.79
2018-08-30T16:39:50.823Z,9.2
2018-08-30T16:43:51.538Z,9.52
2018-08-30T16:49:52.307Z,10.05
2018-08-30T16:53:53.032Z,9.99
2018-08-30T16:59:53.829Z,10.27
2018-08-30T17:03:54.668Z,9.96
2018-08-30T17:05:55.338Z,9.96
2018-08-30T17:09:56.087Z,8.89
2018-08-30T17:15:56.795Z,9.98
2018-08-30T17:19:57.506Z,10.31
2018-08-30T17:25:58.300Z,9.93
2018-08-30T17:29:59.026Z,10.4
2018-08-30T17:31:59.826Z,10.45
2018-08-30T17:36:00.545Z,9.77
2018-08-30T17:42:01.418Z,10.21
2018-08-30T17:46:02.163Z,10.48
2018-08-30T17:52:02.881Z,9.92
2018-08-30T17:56:03.820Z,10.31
2018-08-30T17:58:04.471Z,10.78
2018-08-30T18:02:05.266Z,11.76
2018-08-30T18:08:06.017Z,13.58
2018-08-30T18:12:06.644Z,11.88
2018-08-30T18:18:07.545Z,12.23
2018-08-30T18:24:08.181Z,11.32
2018-08-30T18:28:08.889Z,12.01
2018-08-30T18:34:09.551Z,13.15
2018-08-30T18:38:10.283Z,13.03
2018-08-30T18:44:11.036Z,12.83
2018-08-30T18:50:11.773Z,15.85
2018-08-30T18:54:12.582Z,14.01
2018-08-30T19:00:13.605Z,12.4
2018-08-30T19:04:14.383Z,13.23
2018-08-30T19:10:15.220Z,12.88
2018-08-30T19:16:15.936Z,14.26
2018-08-30T19:20:16.677Z,13.46
2018-08-30T19:26:17.461Z,14.55
2018-08-30T19:30:18.655Z,14.45
2018-08-30T19:36:19.342Z,14.12
2018-08-30T19:42:20.100Z,13.79
2018-08-30T19:46:20.834Z,14.04
2018-08-30T19:52:21.652Z,15.05
2018-08-30T19:56:22.318Z,15.51
2018-08-30T19:58:23.043Z,15.99
2018-08-30T20:02:23.726Z,14.82
2018-08-30T20:08:24.470Z,14.69
2018-08-30T20:12:25.195Z,15.61
2018-08-30T20:18:25.997Z,16.69
2018-08-30T20:22:26.728Z,15.38
2018-08-30T20:24:27.452Z,15.28
2018-08-30T20:28:28.139Z,15.13
2018-08-30T20:34:28.927Z,17.83
2018-08-30T20:38:29.704Z,17.49
2018-08-30T20:44:30.405Z,15.66
2018-08-30T20:48:31.136Z,14.23
2018-08-30T20:50:31.811Z,14.09
2018-08-30T20:54:32.535Z,14.26
2018-08-30T21:00:33.235Z,14.61
2018-08-30T21:04:33.940Z,14.09
2018-08-30T21:10:34.730Z,14.1
2018-08-30T21:14:35.499Z,14.26
2018-08-30T21:16:36.149Z,14.25
2018-08-30T21:20:36.916Z,13.13
2018-08-30T21:26:37.624Z,15.08
2018-08-30T21:30:38.373Z,14.44
2018-08-30T21:36:39.075Z,14.67
2018-08-30T21:40:39.880Z,14.44
2018-08-30T21:42:40.593Z,14.12
2018-08-30T21:46:41.276Z,14.06
2018-08-30T21:52:41.988Z,12.75
2018-08-30T21:56:42.711Z,13.04
2018-08-30T22:02:43.626Z,12.37
2018-08-30T22:08:44.286Z,12.86
2018-08-30T22:12:44.995Z,12.58
2018-08-30T22:18:45.730Z,13.25
2018-08-30T22:22:46.447Z,13.31
2018-08-30T22:28:47.493Z,13.77
2018-08-30T22:34:48.236Z,14.01
2018-08-30T22:38:49.045Z,13.82
2018-08-30T22:44:49.783Z,13.6
2018-08-30T22:48:50.515Z,13.76
2018-08-30T22:54:51.141Z,12.55
2018-08-30T23:00:51.925Z,13.34
2018-08-30T23:04:52.703Z,13.36
2018-08-30T23:10:53.411Z,14.23
2018-08-30T23:14:54.174Z,13.2
2018-08-30T23:20:54.925Z,12.94
2018-08-30T23:26:55.616Z,12.52
2018-08-30T23:30:56.359Z,12.69
2018-08-30T23:36:57.258Z,13.77
2018-08-30T23:40:58.019Z,12.97
2018-08-30T23:42:58.874Z,13.57
2018-08-30T23:46:59.590Z,13.23
2018-08-30T23:53:00.851Z,14.05
2018-08-30T23:57:02.437Z,12.89
